createdAt,value
2023-04-21T00:00:59.050Z,71.60
2023-04-21T00:03:02.018Z,71.77
2023-04-21T00:05:05.561Z,71.82
2023-04-21T00:07:08.527Z,71.93
2023-04-21T00:09:11.722Z,72.33
2023-04-21T00:11:15.133Z,72.16
2023-04-21T00:13:17.984Z,71.79
2023-04-21T00:15:22.278Z,72.42
2023-04-21T00:17:25.123Z,72.74
2023-04-21T00:19:28.902Z,72.00
2023-04-21T00:21:31.903Z,72.10
2023-04-21T00:23:34.703Z,72.43
2023-04-21T00:25:38.089Z,72.30
2023-04-21T00:27:40.855Z,72.23
2023-04-21T00:29:43.695Z,72.66
2023-04-21T00:31:49.288Z,72.29
2023-04-21T00:33:52.257Z,72.61
2023-04-21T00:35:59.235Z,72.68
2023-04-21T00:38:03.547Z,72.28
2023-04-21T00:40:07.836Z,72.74
2023-04-21T00:42:10.793Z,72.56
2023-04-21T00:44:13.620Z,72.36
2023-04-21T00:46:16.439Z,72.47
2023-04-21T00:48:20.617Z,72.08
2023-04-21T00:50:23.482Z,72.36
2023-04-21T00:52:27.589Z,72.93
2023-04-21T00:54:30.621Z,72.43
2023-04-21T00:56:35.039Z,72.72
2023-04-21T00:58:39.153Z,72.77
2023-04-21T01:00:42.981Z,73.08
2023-04-21T01:02:46.374Z,73.41
2023-04-21T01:04:52.001Z,73.19
2023-04-21T01:06:55.182Z,73.60
2023-04-21T01:08:59.687Z,73.27
2023-04-21T01:11:09.750Z,73.23
2023-04-21T01:13:12.740Z,72.95
2023-04-21T01:15:17.020Z,73.20
2023-04-21T01:17:19.893Z,72.92
2023-04-21T01:19:24.903Z,72.96
2023-04-21T01:21:32.004Z,73.15
2023-04-21T01:23:38.701Z,73.05
2023-04-21T01:25:41.595Z,73.11
2023-04-21T01:27:44.445Z,73.14
2023-04-21T01:29:48.796Z,73.40
2023-04-21T01:31:51.744Z,73.03
2023-04-21T01:33:54.700Z,73.40
2023-04-21T01:35:57.592Z,73.36
2023-04-21T01:38:01.346Z,73.36
2023-04-21T01:40:09.175Z,73.63
2023-04-21T01:42:12.242Z,73.60
2023-04-21T01:44:15.112Z,73.14
2023-04-21T01:46:20.945Z,73.70
2023-04-21T01:48:23.863Z,73.35
2023-04-21T01:50:26.666Z,73.03
2023-04-21T01:52:29.623Z,72.97
2023-04-21T01:54:32.469Z,73.64
2023-04-21T01:56:36.666Z,73.58
2023-04-21T01:58:39.543Z,73.37
2023-04-21T02:00:42.311Z,73.62
2023-04-21T02:02:45.263Z,73.43
2023-04-21T02:04:49.431Z,73.48
2023-04-21T02:06:52.260Z,73.77
2023-04-21T02:08:55.033Z,73.04
2023-04-21T02:10:57.839Z,73.02
2023-04-21T02:13:02.092Z,72.81
2023-04-21T02:15:07.181Z,73.05
2023-04-21T02:17:10.489Z,73.23
2023-04-21T02:19:13.329Z,73.54
2023-04-21T02:21:16.395Z,73.26
2023-04-21T02:23:19.185Z,73.72
2023-04-21T02:25:23.486Z,73.58
2023-04-21T02:27:26.302Z,73.46
2023-04-21T02:29:30.455Z,73.00
2023-04-21T02:31:38.287Z,73.46
2023-04-21T02:33:46.269Z,73.13
2023-04-21T02:35:49.064Z,73.06
2023-04-21T02:37:53.127Z,73.44
2023-04-21T02:39:58.256Z,73.99
2023-04-21T02:42:01.688Z,73.62
2023-04-21T02:44:04.747Z,74.08
2023-04-21T02:46:09.581Z,73.98
2023-04-21T02:48:12.418Z,74.21
2023-04-21T02:50:15.465Z,74.70
2023-04-21T02:52:18.477Z,74.66
2023-04-21T02:54:21.341Z,75.06
2023-04-21T02:56:24.276Z,74.98
2023-04-21T02:58:27.604Z,75.30
2023-04-21T03:00:30.571Z,74.93
2023-04-21T03:02:35.043Z,74.98
2023-04-21T03:04:38.081Z,74.59
2023-04-21T03:06:41.081Z,74.83
2023-04-21T03:08:43.941Z,74.21
2023-04-21T03:10:46.835Z,75.19
2023-04-21T03:12:49.957Z,74.77
2023-04-21T03:14:52.772Z,74.96
2023-04-21T03:16:55.605Z,75.02
2023-04-21T03:18:59.811Z,75.13
2023-04-21T03:21:05.062Z,74.94
2023-04-21T03:23:07.870Z,74.94
2023-04-21T03:25:11.877Z,74.84
2023-04-21T03:27:14.732Z,74.75
2023-04-21T03:29:17.811Z,75.25
2023-04-21T03:31:21.469Z,74.92
2023-04-21T03:33:26.273Z,74.91
2023-04-21T03:35:31.371Z,75.05
2023-04-21T03:37:34.494Z,75.40
2023-04-21T03:39:37.359Z,75.17
2023-04-21T03:41:41.437Z,75.08
2023-04-21T03:43:45.689Z,75.44
2023-04-21T03:45:48.558Z,75.70
2023-04-21T03:47:54.716Z,75.66
2023-04-21T03:49:57.656Z,75.39
2023-04-21T03:52:01.781Z,75.63
2023-04-21T03:54:04.682Z,75.57
2023-04-21T03:56:08.227Z,75.65
2023-04-21T03:58:11.095Z,75.59
2023-04-21T04:00:14.835Z,75.19
2023-04-21T04:02:17.650Z,75.21
2023-04-21T04:04:20.758Z,75.04
2023-04-21T04:06:23.754Z,74.87
2023-04-21T04:08:27.985Z,74.90
2023-04-21T04:10:30.853Z,75.21
2023-04-21T04:12:33.608Z,75.39
2023-04-21T04:14:36.502Z,75.37
2023-04-21T04:16:39.328Z,75.25
2023-04-21T04:18:42.208Z,75.32
2023-04-21T04:20:45.014Z,75.31
2023-04-21T04:22:47.972Z,75.51
2023-04-21T04:24:53.173Z,75.22
2023-04-21T04:26:57.821Z,75.23
2023-04-21T04:29:02.201Z,75.60
2023-04-21T04:31:05.087Z,75.62
2023-04-21T04:33:09.176Z,75.84
2023-04-21T04:35:12.880Z,75.52
2023-04-21T04:37:16.117Z,75.60
2023-04-21T04:39:19.245Z,75.92
2023-04-21T04:41:24.335Z,76.07
2023-04-21T04:43:27.295Z,76.14
2023-04-21T04:45:33.013Z,76.56
2023-04-21T04:47:35.935Z,76.11
2023-04-21T04:49:39.113Z,76.70
2023-04-21T04:51:42.223Z,76.41
2023-04-21T04:53:45.000Z,76.77
2023-04-21T04:55:47.970Z,77.04
2023-04-21T04:57:52.146Z,76.89
2023-04-21T04:59:56.377Z,77.19
2023-04-21T05:01:59.245Z,76.35
2023-04-21T05:04:02.223Z,76.01
2023-04-21T05:06:05.952Z,76.17
2023-04-21T05:08:08.774Z,76.43
2023-04-21T05:10:11.990Z,76.37
2023-04-21T05:12:14.880Z,76.41
2023-04-21T05:14:19.233Z,76.13
2023-04-21T05:16:22.188Z,75.69
2023-04-21T05:18:25.551Z,75.94
2023-04-21T05:20:28.442Z,76.14
2023-04-21T05:22:31.359Z,76.33
2023-04-21T05:24:34.352Z,76.62
2023-04-21T05:26:37.267Z,76.93
2023-04-21T05:28:40.363Z,76.71
2023-04-21T05:30:44.657Z,76.78
2023-04-21T05:32:47.678Z,77.36
2023-04-21T05:34:50.736Z,76.61
2023-04-21T05:36:53.796Z,76.49
2023-04-21T05:38:56.750Z,76.51
2023-04-21T05:41:52.831Z,77.16
2023-04-21T05:43:58.980Z,77.36
2023-04-21T05:46:04.027Z,76.86
2023-04-21T05:48:07.284Z,77.46
2023-04-21T05:50:10.462Z,77.47
2023-04-21T05:52:13.342Z,77.16
2023-04-21T05:54:16.770Z,77.04
2023-04-21T05:56:20.015Z,76.88
2023-04-21T05:58:22.897Z,76.74
2023-04-21T06:00:25.884Z,76.66
2023-04-21T06:02:30.393Z,76.95
2023-04-21T06:04:33.588Z,77.06
2023-04-21T06:06:36.930Z,76.30
2023-04-21T06:08:39.832Z,76.03
2023-04-21T06:10:42.603Z,75.62
2023-04-21T06:12:45.667Z,75.70
2023-04-21T06:14:48.508Z,75.92
2023-04-21T06:16:51.397Z,76.64
2023-04-21T06:18:55.568Z,77.19
2023-04-21T06:20:58.553Z,77.06
2023-04-21T06:23:02.240Z,77.18
2023-04-21T06:25:05.752Z,77.09
2023-04-21T06:27:12.986Z,77.26
2023-04-21T06:29:15.862Z,76.96
2023-04-21T06:31:19.814Z,77.19
2023-04-21T06:33:25.747Z,76.56
2023-04-21T06:35:30.705Z,75.92
2023-04-21T06:37:33.726Z,75.87
2023-04-21T06:39:36.600Z,74.63
2023-04-21T06:41:39.535Z,74.75
2023-04-21T06:43:42.421Z,75.55
2023-04-21T06:45:45.337Z,75.57
2023-04-21T06:47:48.318Z,75.78
2023-04-21T06:49:51.313Z,75.70
2023-04-21T06:51:55.533Z,75.37
2023-04-21T06:53:58.510Z,75.76
2023-04-21T06:56:01.550Z,75.76
2023-04-21T06:58:04.395Z,76.03
2023-04-21T07:00:08.612Z,75.91
2023-04-21T07:02:12.820Z,76.27
2023-04-21T07:04:16.013Z,76.01
2023-04-21T07:06:18.897Z,76.06
2023-04-21T07:08:26.274Z,76.01
2023-04-21T07:10:29.731Z,75.75
2023-04-21T07:12:32.512Z,76.12
2023-04-21T07:14:35.370Z,76.35
2023-04-21T07:16:38.311Z,75.99
2023-04-21T07:18:41.921Z,76.53
2023-04-21T07:20:44.885Z,76.59
2023-04-21T07:22:47.738Z,76.69
2023-04-21T07:24:51.960Z,76.74
2023-04-21T07:26:54.854Z,76.60
2023-04-21T07:28:58.670Z,77.11
2023-04-21T07:31:03.582Z,76.84
2023-04-21T07:33:06.771Z,76.34
2023-04-21T07:35:09.902Z,76.25
2023-04-21T07:37:12.731Z,78.26
2023-04-21T07:39:15.561Z,76.23
2023-04-21T07:41:19.814Z,76.21
2023-04-21T07:43:22.810Z,75.74
2023-04-21T07:45:26.037Z,74.54
2023-04-21T07:47:28.943Z,73.21
2023-04-21T07:49:31.944Z,71.96
2023-04-21T07:51:34.802Z,71.73
2023-04-21T07:53:37.663Z,71.18
2023-04-21T07:55:40.566Z,71.11
2023-04-21T07:57:47.108Z,70.68
2023-04-21T07:59:50.192Z,70.33
2023-04-21T08:01:53.283Z,69.83
2023-04-21T08:03:56.251Z,69.92
2023-04-21T08:05:59.281Z,69.24
2023-04-21T08:08:03.952Z,69.45
2023-04-21T08:10:08.222Z,69.57
2023-04-21T08:12:11.103Z,69.43
2023-04-21T08:14:15.288Z,69.44
2023-04-21T08:16:18.290Z,69.27
2023-04-21T08:18:23.481Z,69.10
2023-04-21T08:20:26.492Z,68.83
2023-04-21T08:22:29.335Z,68.21
2023-04-21T08:24:32.173Z,69.21
2023-04-21T08:26:36.520Z,68.61
2023-04-21T08:28:39.297Z,67.72
2023-04-21T08:30:43.718Z,67.86
2023-04-21T08:32:46.504Z,68.44
2023-04-21T08:34:50.303Z,68.31
2023-04-21T08:36:53.059Z,68.38
2023-04-21T08:38:56.057Z,67.84
2023-04-21T08:41:04.247Z,67.25
2023-04-21T08:43:07.811Z,67.42
2023-04-21T08:45:11.274Z,67.52
2023-04-21T08:47:16.324Z,67.50
2023-04-21T08:49:21.828Z,67.18
2023-04-21T08:51:28.100Z,66.71
2023-04-21T08:53:30.953Z,66.82
2023-04-21T08:55:34.052Z,65.66
2023-04-21T08:57:36.808Z,65.12
2023-04-21T08:59:39.640Z,64.49
2023-04-21T09:02:08.035Z,64.98
2023-04-21T09:04:19.324Z,66.89
2023-04-21T09:06:22.447Z,66.09
2023-04-21T09:08:28.034Z,65.47
2023-04-21T09:10:31.321Z,65.24
2023-04-21T09:12:34.237Z,64.38
2023-04-21T09:14:37.024Z,63.15
2023-04-21T09:16:40.047Z,62.20
2023-04-21T09:18:44.240Z,61.37
2023-04-21T09:20:50.568Z,59.79
2023-04-21T09:22:53.374Z,60.58
2023-04-21T09:24:59.976Z,59.40
2023-04-21T09:27:04.928Z,59.05
2023-04-21T09:29:08.061Z,58.90
2023-04-21T09:31:16.732Z,58.69
2023-04-21T09:33:28.005Z,58.97
2023-04-21T09:35:36.780Z,58.24
2023-04-21T09:37:41.154Z,59.18
2023-04-21T09:40:03.341Z,58.96
2023-04-21T09:42:11.239Z,59.59
2023-04-21T09:44:14.161Z,58.76
2023-04-21T09:46:18.152Z,58.42
2023-04-21T09:48:25.980Z,59.08
2023-04-21T09:52:38.977Z,57.51
2023-04-21T09:54:51.325Z,57.28
2023-04-21T09:56:55.939Z,57.13
2023-04-21T09:58:59.186Z,57.63
2023-04-21T10:01:04.730Z,57.91
2023-04-21T10:03:11.546Z,57.32
2023-04-21T10:05:15.084Z,56.65
2023-04-21T10:07:20.860Z,56.39
2023-04-21T10:09:27.025Z,57.45
2023-04-21T10:11:32.782Z,57.48
2023-04-21T10:13:37.881Z,56.45
2023-04-21T10:15:42.281Z,55.60
2023-04-21T10:17:47.194Z,55.00
2023-04-21T10:19:50.709Z,55.18
2023-04-21T10:21:56.813Z,55.27
2023-04-21T10:23:59.655Z,55.34
2023-04-21T10:26:04.121Z,53.81
2023-04-21T10:28:08.634Z,54.17
2023-04-21T10:30:23.189Z,54.46
2023-04-21T10:32:50.473Z,54.54
2023-04-21T10:34:53.363Z,54.76
2023-04-21T10:37:15.533Z,54.98
2023-04-21T10:39:28.752Z,53.83
2023-04-21T10:41:33.247Z,54.52
2023-04-21T10:43:49.153Z,53.92
2023-04-21T10:45:52.805Z,53.95
2023-04-21T10:47:55.846Z,53.77
2023-04-21T10:50:00.723Z,53.61
2023-04-21T10:52:05.465Z,53.30
2023-04-21T10:54:08.405Z,53.12
2023-04-21T10:56:12.282Z,54.24
2023-04-21T10:58:16.893Z,52.60
2023-04-21T11:00:23.736Z,52.87
2023-04-21T11:02:27.197Z,54.03
2023-04-21T11:04:31.973Z,53.02
2023-04-21T11:06:35.138Z,53.02
2023-04-21T11:08:55.916Z,52.28
2023-04-21T11:10:58.725Z,52.85
2023-04-21T11:13:01.694Z,52.39
2023-04-21T11:15:08.251Z,53.38
2023-04-21T11:17:14.733Z,52.73
2023-04-21T11:19:17.605Z,53.45
2023-04-21T11:21:22.015Z,53.99
2023-04-21T11:23:24.989Z,53.78
2023-04-21T11:25:27.761Z,52.33
2023-04-21T11:27:30.979Z,53.46
2023-04-21T11:29:34.212Z,52.96
2023-04-21T11:31:39.339Z,51.30
2023-04-21T11:33:43.708Z,51.78
2023-04-21T11:35:46.591Z,51.82
2023-04-21T11:37:52.058Z,51.97
2023-04-21T11:39:58.991Z,52.14
2023-04-21T11:42:02.179Z,51.46
2023-04-21T11:44:05.180Z,51.13
2023-04-21T11:46:17.668Z,50.92
2023-04-21T11:48:20.926Z,51.25
2023-04-21T11:50:34.725Z,50.85
2023-04-21T11:52:39.201Z,51.02
2023-04-21T11:54:42.098Z,51.23
2023-04-21T11:56:47.789Z,51.24
2023-04-21T11:58:52.723Z,51.78
2023-04-21T12:00:55.683Z,51.61
2023-04-21T12:02:59.044Z,51.74
2023-04-21T12:05:04.468Z,50.29
2023-04-21T12:07:08.865Z,50.18
2023-04-21T12:09:18.303Z,50.42
2023-04-21T12:11:21.456Z,50.68
2023-04-21T12:13:24.369Z,50.42
2023-04-21T12:15:27.359Z,50.92
2023-04-21T12:17:38.108Z,51.06
2023-04-21T12:19:42.500Z,49.21
2023-04-21T12:21:45.300Z,49.05
2023-04-21T12:23:49.494Z,50.20
2023-04-21T12:25:52.242Z,50.95
2023-04-21T12:27:59.752Z,50.88
2023-04-21T12:30:03.298Z,48.81
2023-04-21T12:32:25.837Z,49.59
2023-04-21T12:34:47.119Z,50.56
2023-04-21T12:36:50.494Z,50.33
2023-04-21T12:38:54.643Z,49.83
2023-04-21T12:40:57.464Z,50.14
2023-04-21T12:43:00.599Z,48.67
2023-04-21T12:45:05.243Z,48.75
2023-04-21T12:47:08.838Z,49.12
2023-04-21T12:49:11.787Z,49.85
2023-04-21T12:51:14.643Z,49.44
2023-04-21T12:53:17.569Z,49.20
2023-04-21T12:55:21.874Z,49.08
2023-04-21T12:57:24.709Z,47.99
2023-04-21T12:59:27.626Z,49.42
2023-04-21T13:01:30.599Z,50.23
2023-04-21T13:03:33.536Z,48.28
2023-04-21T13:05:36.611Z,47.96
2023-04-21T13:07:39.647Z,48.75
2023-04-21T13:09:42.617Z,49.08
2023-04-21T13:11:46.922Z,48.52
2023-04-21T13:13:49.810Z,49.43
2023-04-21T13:15:52.599Z,47.84
2023-04-21T13:17:55.582Z,48.21
2023-04-21T13:20:01.126Z,48.14
2023-04-21T13:22:04.059Z,46.98
2023-04-21T13:24:07.013Z,48.45
2023-04-21T13:26:10.281Z,48.18
2023-04-21T13:28:14.860Z,47.60
2023-04-21T13:30:18.371Z,47.30
2023-04-21T13:32:21.408Z,48.68
2023-04-21T13:34:26.055Z,49.10
2023-04-21T13:36:28.889Z,48.74
2023-04-21T13:38:33.756Z,48.98
2023-04-21T13:40:36.614Z,49.83
2023-04-21T13:42:40.731Z,48.77
2023-04-21T13:44:44.964Z,49.11
2023-04-21T13:46:48.128Z,49.03
2023-04-21T13:48:51.661Z,49.06
2023-04-21T13:50:54.514Z,48.09
2023-04-21T13:52:57.388Z,46.80
2023-04-21T13:55:00.180Z,47.17
2023-04-21T13:57:03.044Z,46.25
2023-04-21T13:59:06.297Z,46.13
2023-04-21T14:01:10.612Z,46.41
2023-04-21T14:03:14.064Z,47.78
2023-04-21T14:05:17.341Z,47.92
2023-04-21T14:07:20.417Z,47.19
2023-04-21T14:09:23.213Z,47.25
2023-04-21T14:11:26.097Z,48.12
2023-04-21T14:13:37.457Z,46.42
2023-04-21T14:15:42.705Z,46.14
2023-04-21T14:17:47.005Z,45.50
2023-04-21T14:19:49.915Z,45.62
2023-04-21T14:21:52.865Z,45.39
2023-04-21T14:23:55.765Z,45.07
2023-04-21T14:25:58.575Z,46.51
2023-04-21T14:28:01.442Z,46.00
2023-04-21T14:30:04.691Z,46.28
2023-04-21T14:32:07.686Z,45.20
2023-04-21T14:34:11.879Z,44.54
2023-04-21T14:36:14.761Z,43.76
2023-04-21T14:38:17.719Z,44.50
2023-04-21T14:40:20.705Z,43.85
2023-04-21T14:42:23.586Z,43.73
2023-04-21T14:44:26.559Z,43.74
2023-04-21T14:46:29.472Z,44.26
2023-04-21T14:48:32.957Z,44.15
2023-04-21T14:50:37.133Z,43.99
2023-04-21T14:52:39.954Z,43.67
2023-04-21T14:54:42.802Z,43.69
2023-04-21T14:56:45.694Z,44.23
2023-04-21T14:58:48.552Z,44.18
2023-04-21T15:00:51.641Z,45.28
2023-04-21T15:02:54.714Z,45.42
2023-04-21T15:04:57.826Z,43.76
2023-04-21T15:07:02.073Z,43.04
2023-04-21T15:09:05.144Z,43.47
2023-04-21T15:11:08.041Z,43.80
2023-04-21T15:13:11.461Z,43.85
2023-04-21T15:15:14.297Z,42.89
2023-04-21T15:17:17.109Z,43.02
2023-04-21T15:19:19.829Z,43.56
2023-04-21T15:21:22.713Z,44.81
2023-04-21T15:23:27.062Z,44.23
2023-04-21T15:25:30.209Z,44.57
2023-04-21T15:27:33.039Z,44.21
2023-04-21T15:29:36.312Z,43.89
2023-04-21T15:31:40.200Z,42.61
2023-04-21T15:33:43.057Z,43.56
2023-04-21T15:35:48.246Z,44.03
2023-04-21T15:37:51.335Z,43.61
2023-04-21T15:39:55.979Z,43.52
2023-04-21T15:41:59.272Z,43.48
2023-04-21T15:44:02.223Z,43.48
2023-04-21T15:46:12.881Z,43.36
2023-04-21T15:48:17.378Z,43.59
2023-04-21T15:50:20.392Z,42.97
2023-04-21T15:52:23.397Z,42.27
2023-04-21T15:54:26.446Z,42.02
2023-04-21T15:56:30.908Z,42.72
2023-04-21T15:58:33.565Z,42.37
2023-04-21T16:00:36.572Z,42.10
2023-04-21T16:02:39.739Z,42.33
2023-04-21T16:04:43.459Z,43.12
2023-04-21T16:06:47.042Z,43.51
2023-04-21T16:08:49.940Z,43.39
2023-04-21T16:10:52.773Z,43.48
2023-04-21T16:12:57.358Z,44.73
2023-04-21T16:15:15.932Z,44.57
2023-04-21T16:17:26.550Z,45.67
2023-04-21T16:19:29.676Z,45.68
2023-04-21T16:21:32.593Z,45.79
2023-04-21T16:23:35.752Z,46.70
2023-04-21T16:25:38.735Z,46.88
2023-04-21T16:27:41.613Z,48.04
2023-04-21T16:29:46.267Z,48.26
2023-04-21T16:31:49.087Z,46.30
2023-04-21T16:33:52.531Z,45.25
2023-04-21T16:35:57.607Z,45.43
2023-04-21T16:38:00.705Z,45.74
2023-04-21T16:40:05.883Z,47.28
2023-04-21T16:42:08.898Z,48.30
2023-04-21T16:44:11.656Z,49.07
2023-04-21T16:46:16.127Z,49.86
2023-04-21T16:48:19.123Z,50.95
2023-04-21T16:50:22.058Z,51.69
2023-04-21T16:52:25.531Z,52.37
2023-04-21T16:54:28.424Z,53.77
2023-04-21T16:56:31.625Z,54.66
2023-04-21T16:58:34.478Z,55.97
2023-04-21T17:00:38.072Z,56.61
2023-04-21T17:02:42.432Z,57.18
2023-04-21T17:04:45.549Z,58.89
2023-04-21T17:06:48.976Z,60.42
2023-04-21T17:08:53.082Z,61.05
2023-04-21T17:10:56.432Z,59.48
2023-04-21T17:13:03.151Z,58.81
2023-04-21T17:15:07.371Z,59.72
2023-04-21T17:17:10.626Z,59.15
2023-04-21T17:19:14.896Z,61.31
2023-04-21T17:21:17.765Z,62.29
2023-04-21T17:23:20.827Z,61.21
2023-04-21T17:25:23.866Z,60.64
2023-04-21T17:27:26.834Z,61.17
2023-04-21T17:29:29.799Z,60.07
2023-04-21T17:31:33.697Z,58.89
2023-04-21T17:33:36.639Z,59.14
2023-04-21T17:35:43.764Z,60.24
2023-04-21T17:37:55.318Z,61.66
2023-04-21T17:40:01.133Z,63.11
2023-04-21T17:42:05.740Z,64.04
2023-04-21T17:44:08.550Z,64.13
2023-04-21T17:46:12.432Z,64.13
2023-04-21T17:48:15.550Z,64.45
2023-04-21T17:50:18.481Z,65.05
2023-04-21T17:52:22.663Z,65.59
2023-04-21T17:54:25.531Z,65.49
2023-04-21T17:56:28.615Z,64.83
2023-04-21T17:58:31.470Z,65.21
2023-04-21T18:00:34.865Z,64.77
2023-04-21T18:02:37.838Z,64.50
2023-04-21T18:04:41.103Z,63.94
2023-04-21T18:06:44.462Z,64.33
2023-04-21T18:08:48.633Z,64.90
2023-04-21T18:10:51.615Z,65.77
2023-04-21T18:12:54.614Z,65.33
2023-04-21T18:14:57.422Z,66.20
2023-04-21T18:17:00.603Z,66.79
2023-04-21T18:19:03.518Z,67.24
2023-04-21T18:21:06.354Z,67.62
2023-04-21T18:23:09.466Z,67.39
2023-04-21T18:25:13.798Z,66.45
2023-04-21T18:27:16.570Z,66.68
2023-04-21T18:29:19.910Z,66.90
2023-04-21T18:31:25.889Z,67.79
2023-04-21T18:33:28.849Z,68.22
2023-04-21T18:35:33.140Z,68.53
2023-04-21T18:37:36.014Z,68.35
2023-04-21T18:39:38.856Z,68.60
2023-04-21T18:41:48.069Z,68.88
2023-04-21T18:43:50.915Z,67.78
2023-04-21T18:45:53.891Z,67.91
2023-04-21T18:47:56.814Z,68.65
2023-04-21T18:49:59.840Z,69.32
2023-04-21T18:52:02.732Z,69.29
2023-04-21T18:54:06.053Z,69.36
2023-04-21T18:56:08.963Z,69.47
2023-04-21T18:58:13.083Z,68.00
2023-04-21T19:00:16.374Z,68.52
2023-04-21T19:02:19.410Z,68.21
2023-04-21T19:04:22.422Z,67.92
2023-04-21T19:06:25.356Z,67.66
2023-04-21T19:08:41.209Z,68.58
2023-04-21T19:10:46.053Z,69.14
2023-04-21T19:12:49.047Z,69.76
2023-04-21T19:14:53.611Z,69.28
2023-04-21T19:16:56.896Z,70.01
2023-04-21T19:18:59.732Z,70.10
2023-04-21T19:21:04.225Z,70.43
2023-04-21T19:23:07.210Z,70.81
2023-04-21T19:25:11.926Z,70.39
2023-04-21T19:27:14.886Z,70.59
2023-04-21T19:29:17.819Z,70.30
2023-04-21T19:31:24.198Z,70.93
2023-04-21T19:33:27.110Z,70.88
2023-04-21T19:35:29.986Z,71.17
2023-04-21T19:37:35.012Z,70.30
2023-04-21T19:39:38.121Z,70.18
2023-04-21T19:41:40.990Z,68.88
2023-04-21T19:43:43.888Z,68.34
2023-04-21T19:45:47.393Z,68.79
2023-04-21T19:47:51.805Z,68.23
2023-04-21T19:49:54.866Z,68.47
2023-04-21T19:51:57.725Z,68.42
2023-04-21T19:54:10.884Z,68.48
2023-04-21T19:56:15.112Z,68.64
2023-04-21T19:58:28.165Z,68.82
2023-04-21T20:00:41.634Z,69.02
2023-04-21T20:02:44.534Z,68.60
2023-04-21T20:04:50.614Z,68.81
2023-04-21T20:06:53.583Z,69.52
2023-04-21T20:08:56.864Z,70.12
2023-04-21T20:10:59.739Z,70.32
2023-04-21T20:13:02.677Z,70.78
2023-04-21T20:15:06.629Z,71.12
2023-04-21T20:17:09.508Z,70.98
2023-04-21T20:19:12.434Z,71.40
2023-04-21T20:21:16.677Z,71.19
2023-04-21T20:23:19.603Z,71.69
2023-04-21T20:25:23.546Z,71.83
2023-04-21T20:27:26.509Z,71.71
2023-04-21T20:29:29.674Z,72.26
2023-04-21T20:31:33.284Z,72.05
2023-04-21T20:33:36.650Z,72.11
2023-04-21T20:35:43.912Z,72.80
2023-04-21T20:37:48.337Z,72.72
2023-04-21T20:39:51.231Z,72.53
2023-04-21T20:42:04.987Z,72.41
2023-04-21T20:44:14.602Z,72.27
2023-04-21T20:46:17.752Z,72.27
2023-04-21T20:48:20.688Z,72.32
2023-04-21T20:50:24.291Z,72.33
2023-04-21T20:52:27.310Z,72.53
2023-04-21T20:54:34.483Z,73.02
2023-04-21T20:56:37.574Z,72.86
2023-04-21T20:58:40.362Z,72.26
2023-04-21T21:00:43.458Z,73.51
2023-04-21T21:02:46.487Z,72.81
2023-04-21T21:04:49.469Z,72.71
2023-04-21T21:06:52.476Z,72.66
2023-04-21T21:08:55.449Z,72.42
2023-04-21T21:10:59.757Z,72.00
2023-04-21T21:13:02.525Z,72.37
2023-04-21T21:15:06.416Z,72.42
2023-04-21T21:17:09.978Z,72.01
2023-04-21T21:19:12.958Z,71.85
2023-04-21T21:21:15.814Z,71.58
2023-04-21T21:23:18.584Z,70.83
2023-04-21T21:25:21.543Z,70.40
2023-04-21T21:27:25.802Z,70.33
2023-04-21T21:29:29.621Z,70.71
2023-04-21T21:31:32.437Z,70.48
2023-04-21T21:33:35.355Z,70.48
2023-04-21T21:35:38.277Z,70.65
2023-04-21T21:37:41.143Z,70.12
2023-04-21T21:39:44.162Z,70.53
2023-04-21T21:41:46.968Z,71.27
2023-04-21T21:43:51.161Z,70.64
2023-04-21T21:45:54.560Z,70.57
2023-04-21T21:47:57.586Z,71.00
2023-04-21T21:50:00.360Z,70.48
2023-04-21T21:52:03.214Z,70.87
2023-04-21T21:54:07.393Z,70.45
2023-04-21T21:56:10.336Z,70.92
2023-04-21T21:58:13.344Z,71.06
2023-04-21T22:00:18.678Z,71.28
2023-04-21T22:02:21.548Z,71.59
2023-04-21T22:04:24.535Z,71.32
2023-04-21T22:06:28.918Z,71.08
2023-04-21T22:08:31.882Z,70.81
2023-04-21T22:10:34.662Z,70.77
2023-04-21T22:12:37.468Z,70.87
2023-04-21T22:14:40.291Z,71.03
2023-04-21T22:16:46.082Z,70.43
2023-04-21T22:18:49.160Z,70.55
2023-04-21T22:20:52.014Z,70.96
2023-04-21T22:22:55.138Z,71.25
2023-04-21T22:24:57.935Z,70.98
2023-04-21T22:27:02.030Z,71.29
2023-04-21T22:29:05.336Z,71.15
2023-04-21T22:31:08.305Z,71.21
2023-04-21T22:33:12.486Z,71.40
2023-04-21T22:35:15.321Z,71.34
2023-04-21T22:37:18.156Z,71.70
2023-04-21T22:39:21.850Z,71.60
2023-04-21T22:41:25.412Z,71.53
2023-04-21T22:43:28.280Z,71.49
2023-04-21T22:45:31.119Z,71.34
2023-04-21T22:47:34.437Z,71.26
2023-04-21T22:49:39.154Z,71.39
2023-04-21T22:51:42.358Z,71.42
2023-04-21T22:53:45.194Z,71.81
2023-04-21T22:55:47.989Z,71.42
2023-04-21T22:57:51.007Z,71.52
2023-04-21T22:59:53.983Z,71.73
2023-04-21T23:01:56.884Z,71.69
2023-04-21T23:03:59.951Z,71.52
2023-04-21T23:06:04.405Z,71.84
2023-04-21T23:08:07.215Z,71.82
2023-04-21T23:10:11.200Z,71.82
2023-04-21T23:12:13.997Z,71.48
2023-04-21T23:14:16.899Z,71.88
2023-04-21T23:16:19.698Z,72.01
2023-04-21T23:18:22.521Z,71.82
2023-04-21T23:20:25.645Z,71.93
2023-04-21T23:22:30.021Z,71.97
2023-04-21T23:24:32.895Z,72.02
2023-04-21T23:26:35.672Z,71.82
2023-04-21T23:28:38.560Z,72.08
2023-04-21T23:30:41.401Z,72.22
2023-04-21T23:32:44.788Z,72.33
2023-04-21T23:34:47.765Z,72.18
2023-04-21T23:36:50.805Z,72.47
2023-04-21T23:38:55.099Z,72.45
2023-04-21T23:40:58.008Z,72.43
2023-04-21T23:43:01.107Z,72.42
2023-04-21T23:45:04.148Z,72.34
2023-04-21T23:47:07.012Z,72.21
2023-04-21T23:49:09.887Z,72.38
2023-04-21T23:51:13.081Z,72.77
2023-04-21T23:53:17.159Z,72.47
2023-04-21T23:55:21.652Z,72.48
2023-04-21T23:57:24.780Z,72.36
2023-04-21T23:59:27.938Z,72.71
